Estación Meteorológica Peña el Pijo (Robertgarden) [ 01/17/18 13:55:50 CET ]

Fecha Hora Presion(HPa) Temp (°C) Humedad % Rocio (°C) Viento ( m/s) Direccion Lluvia 1Hora(mm) Lluvia 24H(mm) LLuvia Total(mm)
2018-Jan-09 01:01:48 1003.100 -1.4 81 -4.2         31.08
2018-Jan-09 02:01:41 1003.200 -1.7 82 -4.4         31.08
2018-Jan-09 03:01:42 1003.600 -1.8 83 -4.3         31.08
2018-Jan-09 04:03:12 1004.000 -2.2 83 -4.7         31.08
2018-Jan-09 05:01:53 1004.200 -2.5 83 -5.0         31.08
2018-Jan-09 06:01:42 1004.400 -1.9 84 -4.3         31.08
2018-Jan-09 07:01:57 1004.900 -2.6 84 -5.0         31.08
2018-Jan-09 08:01:42 1005.500 -3.9 84 -6.2         31.08
2018-Jan-09 09:01:43 1006.300 -3.9 84 -6.2         31.08
2018-Jan-09 10:01:50 1006.700 0.5 87 -1.4         31.08
2018-Jan-09 11:01:47 1007.200 5.6 81 2.6         31.08
2018-Jan-09 12:01:42 1007.200 7.8 67 2.0         31.08
2018-Jan-09 13:01:45 1006.500 7.9 55 -0.6         31.08
2018-Jan-09 14:01:48 1006.200 8.7 48 -1.8         31.08
2018-Jan-09 15:01:36 1006.200 7.5 46 -3.4 1.3 NW     31.08
2018-Jan-09 16:01:48 1006.000 7.2 45 -4.0         31.08
2018-Jan-09 17:02:08 1006.600 6.6 45 -4.6         31.08
2018-Jan-09 18:01:35 1006.900 5.7 48 -4.5         31.08
2018-Jan-09 19:01:34 1007.300 3.9 54 -4.6         31.08
2018-Jan-09 20:01:57 1007.200 3.0 57 -4.7         31.08
2018-Jan-09 21:01:45 1007.200 2.9 63 -3.5         31.08
2018-Jan-09 22:01:38 1007.300 5.6 68 0.2         31.08
2018-Jan-09 23:01:57 1007.100 4.9 67 -0.7         31.08

Temperatura Máxima:    Temperatura Mínima:-3°
Presión Máxima:1007.300 Hpa    Presión Mínima:1003.100 Hpa


Volver